Latest Weather Observations for Moss Vale

IDN60801

Issued at 4:52 am EDT Tuesday 26 March 2019 (issued every 10 minutes, with the page automatically refreshed every 10 minutes)

About weather observations | Map of weather stations | Latest weather observations for NSW | Other Formats
Station Details ID: 068239 Name: MOSS VALE AWS Lat: -34.53 Lon: 150.42 Height: 678.4 m
Data from the previous 72 hours. | See also: Recent months at Moss Vale
Date/Time
EDT
Temp
°C
App
Temp
°C
Dew
Point
°C
Rel
Hum
%
Delta-T
°C
Wind Press
QNH
hPa
Press
MSL
hPa
Rain since
9am
mm
Dir  Spd
km/h
Gust
km/h
Spd
kts
Gust
kts
26/04:30am 11.4 7.0 7.3 76 2.0 W 20 30 11 16 1014.4 1012.1 0.4
26/04:00am 11.4 7.0 7.3 76 2.0 W 20 26 11 14 1014.2 1011.9 0.4
26/03:30am 11.7 7.4 7.2 74 2.2 W 19 24 10 13 1014.3 1012.0 0.4
26/03:00am 12.1 8.3 7.4 73 2.4 W 17 24 9 13 1014.5 1012.2 0.4
26/02:30am 12.4 8.3 7.9 74 2.3 W 19 26 10 14 1014.6 1012.3 0.4
26/02:00am 12.9 8.8 8.6 75 2.2 W 20 30 11 16 1014.9 1012.5 0.4
26/01:30am 13.0 9.1 9.4 79 1.9 W 20 33 11 18 1015.0 1012.7 0.4
26/01:00am 13.2 9.4 9.8 80 1.8 W 20 28 11 15 1014.8 1012.4 0.4
26/12:30am 13.2 9.3 9.6 79 1.9 W 20 26 11 14 1014.4 1012.1 0.4
26/12:00am 13.2 9.6 9.8 80 1.8 W 19 26 10 14 1014.2 1011.9 0.4
 
Date/Time
EDT
Temp
°C
App
Temp
°C
Dew
Point
°C
Rel
Hum
%
Delta-T
°C
Wind Press
QNH
hPa
Press
MSL
hPa
Rain since
9am
mm
Dir  Spd
km/h
Gust
km/h
Spd
kts
Gust
kts
25/11:30pm 13.5 8.9 9.7 78 2.0 W 24 32 13 17 1014.2 1011.9 0.4
25/11:00pm 13.8 9.9 9.6 76 2.2 W 20 28 11 15 1014.3 1012.0 0.4
25/10:30pm 14.2 11.0 9.8 75 2.4 W 17 22 9 12 1014.2 1011.9 0.4
25/10:00pm 14.4 11.2 10.0 75 2.4 WNW 17 22 9 12 1014.1 1011.8 0.4
25/09:30pm 14.6 11.0 10.0 74 2.5 WNW 19 28 10 15 1013.9 1011.6 0.4
25/09:00pm 15.2 11.6 10.6 74 2.5 WNW 20 33 11 18 1013.6 1011.2 0.4
25/08:30pm 15.6 12.4 11.4 76 2.3 W 19 24 10 13 1013.3 1010.9 0.4
25/08:06pm 16.0 9.6 10.7 71 2.9 W 35 54 19 29 1012.7 1010.4 0.4
25/08:00pm 16.2 10.6 11.6 74 2.6 W 32 46 17 25 1012.6 1010.3 0.4
25/07:57pm 16.1 11.4 11.9 76 2.4 W 28 46 15 25 1012.5 1010.2 0.4
25/07:30pm 16.0 12.0 13.1 83 1.7 W 26 37 14 20 1012.3 1009.9 0.4
25/07:00pm 16.5 12.8 14.0 85 1.5 W 26 39 14 21 1011.9 1009.5 0.4
25/06:51pm 16.7 12.3 14.0 84 1.6 W 30 41 16 22 1011.6 1009.2 0.4
25/06:32pm 17.3 15.2 15.1 87 1.3 W 20 30 11 16 1011.1 1008.8 0.4
25/06:30pm 17.3 15.2 15.1 87 1.3 W 20 28 11 15 1011.1 1008.8 0.4
25/06:29pm 17.3 15.2 15.1 87 1.3 W 20 30 11 16 1011.1 1008.8 0.4
25/06:18pm 17.4 15.0 15.4 88 1.2 WNW 22 33 12 18 1010.9 1008.5 0.4
25/06:00pm 17.4 14.6 15.4 88 1.2 W 24 35 13 19 1010.5 1008.1 0.4
25/05:59pm 17.3 14.4 15.1 87 1.3 W 24 35 13 19 1010.4 1008.0 0.4
25/05:37pm 17.7 11.9 15.0 84 1.6 WNW 39 63 21 34 1010.0 1007.6 0.2
25/05:35pm 18.0 12.3 14.3 79 2.2 WNW 37 63 20 34 1009.8 1007.5 0.2
25/05:30pm 20.3 16.6 15.1 72 3.2 NW 28 54 15 29 1009.4 1007.0 0.0
25/05:29pm 20.3 16.6 15.1 72 3.2 NW 28 48 15 26 1009.4 1007.0 0.0
25/05:00pm 20.5 16.7 14.8 70 3.5 WNW 28 41 15 22 1009.2 1006.8 0.0
25/04:30pm 20.5 15.7 14.6 69 3.6 WNW 33 54 18 29 1009.2 1006.8 0.0
25/04:00pm 20.9 15.9 15.0 69 3.6 NW 35 67 19 36 1008.6 1006.2 0.0
25/03:30pm 20.6 15.9 14.9 70 3.5 NW 33 59 18 32 1008.6 1006.2 0.0
25/03:00pm 20.3 15.2 14.9 71 3.3 WNW 35 54 19 29 1008.7 1006.3 0.0
25/02:30pm 20.2 15.2 15.0 72 3.2 NW 35 57 19 31 1008.8 1006.4 0.0
25/02:00pm 20.0 14.1 14.8 72 3.1 NW 39 57 21 31 1009.1 1006.7 0.0
25/01:30pm 20.1 15.3 14.5 70 3.4 NW 33 54 18 29 1009.7 1007.4 0.0
25/01:00pm 20.0 14.3 14.1 69 3.5 NW 37 63 20 34 1009.8 1007.5 0.0
25/12:30pm 19.9 15.0 14.3 70 3.3 NW 33 52 18 28 1009.8 1007.5 0.0
25/12:00pm 19.9 15.6 14.3 70 3.4 WNW 30 52 16 28 1010.2 1007.8 0.0
25/11:30am 19.7 15.6 13.9 69 3.4 NW 28 50 15 27 1010.3 1007.9 0.0
25/11:00am 19.5 14.7 13.9 70 3.3 NW 32 56 17 30 1010.4 1008.0 0.0
25/10:30am 19.1 15.0 13.7 71 3.2 NW 28 46 15 25 1010.5 1008.1 0.0
25/10:03am 18.9 13.9 13.3 70 3.3 NW 32 50 17 27 1010.8 1008.4 0.0
25/10:00am 18.9 13.7 13.5 71 3.2 NW 33 50 18 27 1010.8 1008.4 0.0
25/09:30am 18.7 14.4 13.3 71 3.2 NW 28 46 15 25 1010.8 1008.4 0.0
25/09:00am 18.4 12.9 12.6 69 3.4 WNW 33 61 18 33 1011.0 1008.6 0.2
25/08:55am 18.5 14.0 12.7 69 3.4 WNW 28 48 15 26 1011.2 1008.9 0.2
25/08:30am 18.0 13.9 12.7 71 3.1 NW 26 37 14 20 1011.2 1008.9 0.2
25/08:00am 17.7 13.3 13.0 74 2.7 NW 28 41 15 22 1011.0 1008.6 0.2
25/07:38am 17.8 13.3 12.7 72 2.9 NW 28 46 15 25 1011.0 1008.6 0.2
25/07:30am 17.8 12.9 12.7 72 2.9 NW 30 41 16 22 1011.1 1008.8 0.2
25/07:00am 18.0 13.1 12.7 71 3.1 NW 30 44 16 24 1011.7 1009.3 0.2
25/06:30am 17.8 13.4 12.9 73 2.8 NW 28 44 15 24 1011.9 1009.5 0.2
25/06:00am 18.2 13.0 12.9 71 3.1 NW 32 50 17 27 1011.9 1009.5 0.2
25/05:30am 18.8 12.3 12.8 68 3.5 WNW 39 59 21 32 1011.4 1009.1 0.2
25/05:00am 19.5 12.3 13.0 66 3.8 WNW 43 63 23 34 1011.3 1009.0 0.2
25/04:43am 19.2 14.0 13.4 69 3.4 WNW 33 52 18 28 1011.3 1009.0 0.2
25/04:30am 19.1 14.4 13.1 68 3.5 WNW 30 41 16 22 1011.1 1008.8 0.2
25/04:00am 19.2 14.5 13.2 68 3.5 WNW 30 44 16 24 1010.6 1008.2 0.2
25/03:48am 19.1 14.8 13.3 69 3.4 WNW 28 46 15 25 1010.5 1008.1 0.2
25/03:30am 19.0 14.8 13.4 70 3.3 WNW 28 43 15 23 1010.9 1008.5 0.2
25/03:12am 19.1 14.9 13.5 70 3.3 WNW 28 46 15 25 1011.2 1008.9 0.2
25/03:00am 19.1 14.9 13.5 70 3.3 WNW 28 41 15 22 1011.7 1009.3 0.2
25/02:40am 19.5 15.4 13.7 69 3.4 WNW 28 46 15 25 1011.8 1009.4 0.2
25/02:30am 19.0 16.3 13.6 71 3.2 NW 20 33 11 18 1011.6 1009.2 0.2
25/02:00am 19.2 16.1 13.4 69 3.4 NW 22 32 12 17 1011.3 1009.0 0.2
25/01:30am 19.6 16.1 13.5 68 3.6 NW 24 39 13 21 1011.9 1009.5 0.2
25/01:00am 19.8 16.7 13.5 67 3.7 NW 22 33 12 18 1012.4 1010.1 0.2
25/12:30am 19.7 17.7 13.9 69 3.4 NW 17 24 9 13 1012.9 1010.6 0.2
25/12:00am 19.1 17.6 14.1 73 3.0 NNW 15 20 8 11 1013.6 1011.2 0.2
 
Date/Time
EDT
Temp
°C
App
Temp
°C
Dew
Point
°C
Rel
Hum
%
Delta-T
°C
Wind Press
QNH
hPa
Press
MSL
hPa
Rain since
9am
mm
Dir  Spd
km/h
Gust
km/h
Spd
kts
Gust
kts
24/11:30pm 19.1 18.1 14.6 75 2.7 N 13 15 7 8 1013.5 1011.1 0.2
24/11:00pm 19.2 18.6 14.5 74 2.8 NNW 11 15 6 8 1013.5 1011.1 0.2
24/10:30pm 19.8 17.9 14.2 70 3.3 NNW 17 26 9 14 1013.2 1010.8 0.2
24/10:00pm 19.6 18.5 14.4 72 3.1 NW 13 20 7 11 1012.7 1010.4 0.2
24/09:30pm 19.7 18.3 14.5 72 3.1 NW 15 22 8 12 1012.9 1010.6 0.2
24/09:00pm 19.7 17.5 14.5 72 3.1 NNW 19 26 10 14 1013.2 1010.8 0.2
24/08:30pm 20.0 17.9 14.6 71 3.2 NNW 19 24 10 13 1013.4 1011.0 0.2
24/08:00pm 20.4 18.7 14.7 70 3.4 NNW 17 20 9 11 1013.3 1010.9 0.2
24/07:30pm 21.5 19.8 14.6 65 4.2 NW 17 22 9 12 1013.6 1011.2 0.2
24/07:00pm 21.5 20.4 15.3 68 3.8 NW 15 22 8 12 1013.8 1011.5 0.2
24/06:30pm 21.8 21.9 15.4 67 3.9 NW 9 13 5 7 1013.7 1011.4 0.2
24/06:00pm 22.8 22.0 15.1 62 4.7 WNW 13 20 7 11 1013.5 1011.1 0.0
24/05:30pm 23.8 23.0 15.0 57 5.4 NW 13 19 7 10 1013.3 1010.9 0.0
24/05:00pm 24.3 23.5 15.2 57 5.6 NW 13 20 7 11 1012.9 1010.6 0.0
24/04:30pm 23.9 23.5 15.1 58 5.4 NW 11 17 6 9 1013.2 1010.8 0.0
24/04:00pm 23.8 22.0 14.5 56 5.7 WNW 17 22 9 12 1013.3 1010.9 0.0
24/03:30pm 23.9 23.0 14.9 57 5.5 WNW 13 20 7 11 1013.4 1011.0 0.0
24/03:00pm 23.7 22.4 13.6 53 6.1 W 13 19 7 10 1013.7 1011.4 0.0
24/02:30pm 23.7 22.3 14.4 56 5.7 WSW 15 20 8 11 1014.0 1011.7 0.0
24/02:00pm 23.4 21.7 13.6 54 5.9 WSW 15 20 8 11 1014.6 1012.3 0.0
24/01:30pm 23.7 21.2 13.6 53 6.1 WSW 19 26 10 14 1014.9 1012.5 0.0
24/01:00pm 23.4 21.6 14.4 57 5.5 W 17 22 9 12 1015.3 1013.0 0.0
24/12:30pm 23.5 21.7 14.5 57 5.5 SW 17 22 9 12 1015.3 1013.0 0.0
24/12:00pm 22.6 21.0 15.0 62 4.6 SW 17 26 9 14 1015.9 1013.6 0.0
24/11:30am 21.9 20.1 14.5 63 4.5 WSW 17 24 9 13 1016.3 1014.0 0.0
24/11:00am 21.9 20.5 15.5 67 3.9 WSW 17 24 9 13 1016.6 1014.3 0.0
24/10:30am 21.3 20.0 15.8 71 3.4 WSW 17 24 9 13 1016.5 1014.2 0.0
24/10:00am 19.8 21.2 17.4 86 1.5 SSW 6 7 3 4 1016.1 1013.8 0.0
24/09:30am 18.4 19.8 16.4 88 1.2 W 4 9 2 5 1015.8 1013.5 0.0
24/09:00am 17.9 20.1 16.6 92 0.8 CALM 0 0 0 0 1015.4 1013.1 0.2
24/08:30am 17.8 20.1 16.7 93 0.7 CALM 0 0 0 0 1015.2 1012.9 0.2
24/08:00am 17.6 19.3 16.3 92 0.8 W 2 7 1 4 1014.9 1012.5 0.2
24/07:30am 17.0 17.4 16.2 95 0.5 WSW 9 13 5 7 1015.2 1012.9 0.2
24/07:00am 16.7 17.3 15.9 95 0.5 NE 7 9 4 5 1014.4 1012.1 0.2
24/06:30am 16.3 18.1 15.5 95 0.5 CALM 0 0 0 0 1013.5 1011.1 0.2
24/06:00am 16.3 18.1 15.5 95 0.5 CALM 0 0 0 0 1013.3 1010.9 0.2
24/05:30am 16.7 18.7 15.9 95 0.5 CALM 0 0 0 0 1013.2 1010.8 0.2
24/05:00am 16.6 18.4 15.5 93 0.7 CALM 0 0 0 0 1013.0 1010.7 0.2
24/04:30am 17.2 18.6 15.5 90 1.0 NNW 2 6 1 3 1013.0 1010.7 0.2
24/04:00am 17.5 18.3 15.8 90 1.0 NNW 6 7 3 4 1013.5 1011.1 0.2
24/03:30am 17.8 19.7 15.8 88 1.2 CALM 0 0 0 0 1013.6 1011.2 0.2
24/03:00am 18.4 18.3 16.0 86 1.5 N 11 13 6 7 1014.1 1011.8 0.2
24/02:30am 18.4 19.1 16.0 86 1.5 N 7 13 4 7 1013.9 1011.6 0.2
24/02:00am 18.5 17.2 15.9 85 1.6 N 17 24 9 13 1014.2 1011.9 0.2
24/01:30am 18.7 16.9 15.9 84 1.7 N 20 28 11 15 1014.2 1011.9 0.2
24/01:00am 18.7 17.4 15.9 84 1.7 NNW 17 26 9 14 1014.8 1012.4 0.2
24/12:30am 18.4 19.0 15.8 85 1.6 N 7 11 4 6 1015.1 1012.8 0.2
24/12:00am 18.5 18.8 15.9 85 1.6 N 9 15 5 8 1015.2 1012.9 0.2
 
Date/Time
EDT
Temp
°C
App
Temp
°C
Dew
Point
°C
Rel
Hum
%
Delta-T
°C
Wind Press
QNH
hPa
Press
MSL
hPa
Rain since
9am
mm
Dir  Spd
km/h
Gust
km/h
Spd
kts
Gust
kts
23/11:30pm 18.4 17.6 16.0 86 1.5 N 15 20 8 11 1015.0 1012.7 0.2
23/11:00pm 18.4 19.6 16.0 86 1.5 NNW 4 11 2 6 1014.8 1012.4 0.2
23/10:30pm 18.6 19.9 16.2 86 1.5 N 4 9 2 5 1014.5 1012.2 0.2
23/10:00pm 18.8 19.2 16.4 86 1.5 NE 9 13 5 7 1014.3 1012.0 0.2
23/09:30pm 19.0 17.6 16.6 86 1.5 NNE 19 22 10 12 1014.4 1012.1 0.2
23/09:00pm 19.6 17.6 16.4 82 2.0 NNE 22 28 12 15 1014.4 1012.1 0.2
23/08:30pm 19.6 18.7 16.8 84 1.7 NNE 17 22 9 12 1014.3 1012.0 0.2
23/08:00pm 19.9 19.4 16.9 83 1.9 NE 15 20 8 11 1014.1 1011.8 0.2
23/07:30pm 20.1 20.5 17.3 84 1.8 NE 11 13 6 7 1014.1 1011.8 0.2
23/07:00pm 20.5 20.5 17.1 81 2.1 NE 13 17 7 9 1013.9 1011.6 0.2
23/06:30pm 21.1 20.2 16.9 77 2.6 NNE 17 22 9 12 1014.2 1011.9 0.2
23/06:00pm 21.8 22.2 17.2 75 2.9 NE 11 15 6 8 1013.9 1011.6 0.2
23/05:30pm 22.9 23.6 17.1 70 3.7 ENE 9 11 5 6 1013.7 1011.4 0.0
23/05:00pm 23.5 22.7 16.1 63 4.6 ESE 15 17 8 9 1013.4 1011.0 0.0
23/04:30pm 24.0 23.2 15.0 57 5.5 SW 13 22 7 12 1013.3 1010.9 0.0
23/04:00pm 25.6 24.8 12.8 45 7.7 NNW 9 15 5 8 1013.3 1010.9 0.0
23/03:30pm 25.7 24.8 12.5 44 7.9 WNW 9 13 5 7 1013.6 1011.2 0.0
23/03:00pm 25.9 24.1 12.0 42 8.2 W 13 19 7 10 1013.4 1011.0 0.0
23/02:30pm 26.3 23.1 11.2 38 8.8 W 19 26 10 14 1013.7 1011.4 0.0
23/02:00pm 26.3 22.9 10.5 37 9.1 NW 19 26 10 14 1014.0 1011.7 0.0
23/01:30pm 25.5 23.4 12.4 44 7.8 WNW 15 22 8 12 1014.3 1012.0 0.0
23/01:00pm 24.6 22.5 12.5 46 7.2 NNW 15 24 8 13 1014.4 1012.1 0.0
23/12:30pm 24.0 23.2 14.1 54 6.0 NW 11 17 6 9 1015.2 1012.9 0.0
23/12:00pm 23.3 21.3 13.8 55 5.7 N 17 20 9 11 1015.5 1013.2 0.0
23/11:30am 22.2 19.4 13.3 57 5.3 N 20 24 11 13 1015.8 1013.5 0.0
23/11:00am 21.4 19.2 14.8 66 4.0 N 20 26 11 14 1016.3 1014.0 0.0
23/10:30am 20.3 18.0 14.2 68 3.6 N 19 24 10 13 1016.4 1014.1 0.0
23/10:00am 19.1 16.8 14.6 75 2.7 NNE 20 26 11 14 1016.6 1014.3 0.0
23/09:34am 18.2 15.8 14.5 79 2.2 NNE 20 26 11 14 1016.6 1014.3 0.0
23/09:30am 18.5 16.2 15.7 84 1.7 NNE 22 28 12 15 1016.6 1014.3 0.0
23/09:00am 17.2 14.7 15.2 88 1.2 NNE 22 32 12 17 1016.7 1014.4 1.0
23/08:30am 16.8 15.3 15.3 91 0.9 NNE 17 20 9 11 1016.6 1014.3 1.0
23/08:00am 16.5 15.8 15.5 94 0.6 NNE 13 17 7 9 1016.5 1014.2 1.0
23/07:53am 16.5 15.8 15.5 94 0.6 NNE 13 15 7 8 1016.5 1014.2 1.0
23/07:43am 16.3 15.6 15.5 95 0.5 NNE 13 17 7 9 1016.6 1014.3 1.0
23/07:30am 16.2 15.1 15.2 94 0.6 NNE 15 20 8 11 1016.7 1014.4 1.0
23/07:00am 16.3 16.0 15.5 95 0.5 NNE 11 15 6 8 1016.6 1014.3 1.0
23/06:54am 16.2 15.9 15.4 95 0.5 NNE 11 13 6 7 1016.5 1014.2 1.0
23/06:32am 16.2 16.2 15.2 94 0.6 NE 9 13 5 7 1016.4 1014.1 1.0
23/06:30am 16.3 16.3 15.3 94 0.6 NE 9 13 5 7 1016.4 1014.1 1.0
23/06:00am 16.3 16.7 15.3 94 0.6 ENE 7 9 4 5 1016.4 1014.1 1.0
23/05:30am 16.3 16.3 15.3 94 0.6 NNE 9 9 5 5 1016.3 1014.0 1.0
23/05:16am 16.4 16.5 15.6 95 0.5 NE 9 13 5 7 1016.3 1014.0 1.0
23/05:00am 16.5 17.2 15.7 95 0.5 E 6 7 3 4 1016.3 1014.0 1.0

Other formats

Comma delimited format used in spreadsheet applications
http://www.bom.gov.au/fwo/IDN60801/IDN60801.94746.axf

JavaScript Object Notation format (JSON) in row-major order
http://www.bom.gov.au/fwo/IDN60801/IDN60801.94746.json

Data quality

Most of these data are generated automatically and are frequently updated. Quality checks on data are not normally performed. It is possible for incorrect values to appear. Refer to information at About Latest Weather Observations and please check the disclaimer before using these data.